createdAt,value
2019-03-09T06:15:16.950Z,11.25
2019-03-09T06:16:16.917Z,11.25
2019-03-09T06:17:16.906Z,11.25
2019-03-09T06:18:16.923Z,11.25
2019-03-09T06:19:16.890Z,11.25
2019-03-09T06:20:16.900Z,11.25
2019-03-09T06:21:16.867Z,16.88
2019-03-09T06:22:16.862Z,16.88
2019-03-09T06:23:16.864Z,16.88
2019-03-09T06:24:16.834Z,16.88
2019-03-09T06:25:16.841Z,16.88
2019-03-09T06:26:16.822Z,16.88
2019-03-09T06:27:16.812Z,22.50
2019-03-09T06:28:16.811Z,22.50
2019-03-09T06:29:25.335Z,28.12
2019-03-09T06:30:16.773Z,28.12
2019-03-09T06:31:16.762Z,33.75
2019-03-09T06:32:16.748Z,33.75
2019-03-09T06:33:16.763Z,33.75
2019-03-09T06:34:16.730Z,33.75
2019-03-09T06:35:16.719Z,33.75
2019-03-09T06:36:16.719Z,33.75
2019-03-09T06:37:16.696Z,33.75
2019-03-09T06:38:16.704Z,39.38
2019-03-09T06:39:16.683Z,45.00
2019-03-09T06:40:16.664Z,45.00
2019-03-09T06:41:16.658Z,45.00
2019-03-09T06:42:16.648Z,45.00
2019-03-09T06:43:16.663Z,45.00
2019-03-09T06:44:16.642Z,45.00
2019-03-09T06:45:16.616Z,50.62
2019-03-09T06:46:16.602Z,50.62
2019-03-09T06:47:16.607Z,61.88
2019-03-09T06:48:16.600Z,67.50
2019-03-09T06:49:16.568Z,67.50
2019-03-09T06:50:16.575Z,61.88
2019-03-09T06:51:16.545Z,61.88
2019-03-09T06:52:16.535Z,61.88
2019-03-09T06:53:16.545Z,50.62
2019-03-09T06:54:16.522Z,39.38
2019-03-09T06:55:16.500Z,33.75
2019-03-09T06:56:16.493Z,28.12
2019-03-09T06:57:16.507Z,28.12
2019-03-09T06:58:16.488Z,28.12
2019-03-09T06:59:16.461Z,33.75
2019-03-09T07:00:16.447Z,39.38
2019-03-09T07:01:16.435Z,39.38
2019-03-09T07:02:16.426Z,39.38
2019-03-09T07:03:16.435Z,39.38
2019-03-09T07:04:16.405Z,39.38
2019-03-09T07:05:16.402Z,39.38
2019-03-09T07:06:16.394Z,39.38
2019-03-09T07:07:16.370Z,39.38
2019-03-09T07:08:16.379Z,39.38
2019-03-09T07:09:16.350Z,39.38
2019-03-09T07:10:16.338Z,39.38
2019-03-09T07:11:16.328Z,39.38
2019-03-09T07:12:16.321Z,39.38
2019-03-09T07:13:16.325Z,45.00
2019-03-09T07:14:16.299Z,39.38
2019-03-09T07:15:16.288Z,28.12
2019-03-09T07:16:16.280Z,33.75
2019-03-09T07:17:16.265Z,39.38
2019-03-09T07:18:16.291Z,45.00
2019-03-09T07:19:16.249Z,45.00
2019-03-09T07:20:16.235Z,45.00
2019-03-09T07:21:16.220Z,39.38
2019-03-09T07:22:16.212Z,33.75
2019-03-09T07:23:16.208Z,28.12
2019-03-09T07:24:16.209Z,39.38
2019-03-09T07:25:16.223Z,45.00
2019-03-09T07:26:16.172Z,45.00
2019-03-09T07:27:16.158Z,45.00
2019-03-09T07:28:16.148Z,50.62
2019-03-09T07:29:16.157Z,50.62
2019-03-09T07:30:16.124Z,39.38
2019-03-09T07:31:16.110Z,39.38
2019-03-09T07:32:16.098Z,45.00
2019-03-09T07:33:16.090Z,56.25
2019-03-09T07:34:16.100Z,56.25
2019-03-09T07:35:16.073Z,50.62
2019-03-09T07:36:16.061Z,45.00
2019-03-09T07:37:16.045Z,50.62
2019-03-09T07:38:16.036Z,50.62
2019-03-09T07:39:16.046Z,39.38
2019-03-09T07:40:16.016Z,33.75
2019-03-09T07:41:16.015Z,39.38
2019-03-09T07:42:15.996Z,39.38
2019-03-09T07:43:15.978Z,45.00
2019-03-09T07:44:15.987Z,45.00
2019-03-09T07:45:15.964Z,45.00
2019-03-09T07:46:15.949Z,45.00
2019-03-09T07:47:15.950Z,50.62
2019-03-09T07:48:15.936Z,56.25
2019-03-09T07:49:15.933Z,50.62
2019-03-09T07:50:15.904Z,56.25
2019-03-09T07:51:15.890Z,56.25
2019-03-09T07:52:15.884Z,67.50
2019-03-09T07:53:15.879Z,73.12
2019-03-09T07:54:15.887Z,78.75
2019-03-09T07:55:15.851Z,67.50
2019-03-09T07:56:15.847Z,67.50
2019-03-09T07:57:15.830Z,73.12
2019-03-09T07:58:15.815Z,61.88
2019-03-09T07:59:15.875Z,56.25
2019-03-09T08:00:15.791Z,56.25
2019-03-09T08:01:15.780Z,56.25
2019-03-09T08:02:15.771Z,56.25
2019-03-09T08:03:15.763Z,50.62
2019-03-09T08:04:15.777Z,50.62
2019-03-09T08:05:15.753Z,50.62
2019-03-09T08:06:15.727Z,39.38
2019-03-09T08:07:15.713Z,50.62
2019-03-09T08:08:15.706Z,50.62
2019-03-09T08:09:15.719Z,50.62
2019-03-09T08:10:15.715Z,50.62
2019-03-09T08:11:15.670Z,39.38
2019-03-09T08:12:15.697Z,45.00
2019-03-09T08:13:15.648Z,50.62
2019-03-09T08:14:15.657Z,39.38
2019-03-09T08:15:15.624Z,56.25
2019-03-09T08:16:15.630Z,56.25
2019-03-09T08:17:15.605Z,50.62
2019-03-09T08:18:15.594Z,50.62
2019-03-09T08:19:15.605Z,56.25
2019-03-09T08:20:15.577Z,56.25
2019-03-09T08:21:15.562Z,61.88
2019-03-09T08:22:15.559Z,61.88
2019-03-09T08:23:15.537Z,56.25
2019-03-09T08:24:15.543Z,61.88
2019-03-09T08:25:15.519Z,61.88
2019-03-09T08:26:15.505Z,61.88
2019-03-09T08:27:15.494Z,73.12
2019-03-09T08:28:16.497Z,73.12
2019-03-09T08:29:15.497Z,67.50
2019-03-09T08:30:15.458Z,73.12
2019-03-09T08:31:15.464Z,67.50
2019-03-09T08:32:15.440Z,67.50
2019-03-09T08:33:15.434Z,67.50
2019-03-09T08:34:15.429Z,73.12
2019-03-09T08:35:15.427Z,67.50
2019-03-09T08:36:15.396Z,67.50
2019-03-09T08:37:15.389Z,61.88
2019-03-09T08:38:15.388Z,67.50
2019-03-09T08:39:15.426Z,61.88
2019-03-09T08:40:15.350Z,61.88
2019-03-09T08:41:15.340Z,61.88
2019-03-09T08:42:15.325Z,56.25
2019-03-09T08:43:15.314Z,61.88
2019-03-09T08:44:15.329Z,56.25
2019-03-09T08:45:15.318Z,61.88
2019-03-09T08:46:15.384Z,61.88
2019-03-09T08:47:15.288Z,61.88
2019-03-09T08:48:15.279Z,61.88
2019-03-09T08:49:15.260Z,67.50
2019-03-09T08:50:15.272Z,61.88
2019-03-09T08:51:15.233Z,61.88
2019-03-09T08:52:15.222Z,61.88
2019-03-09T08:53:15.205Z,61.88
2019-03-09T08:54:15.228Z,61.88
2019-03-09T08:55:15.213Z,61.88
2019-03-09T08:56:15.241Z,61.88
2019-03-09T08:57:15.157Z,61.88
2019-03-09T08:58:15.177Z,61.88
2019-03-09T08:59:15.192Z,67.50
2019-03-09T09:00:15.124Z,73.12
2019-03-09T09:01:15.118Z,78.75
2019-03-09T09:02:15.117Z,84.38
2019-03-09T09:03:15.093Z,90.00
2019-03-09T09:04:15.117Z,84.38
2019-03-09T09:05:15.066Z,95.62
2019-03-09T09:06:15.069Z,95.62
2019-03-09T09:07:15.048Z,95.62
2019-03-09T09:08:15.039Z,95.62
2019-03-09T09:09:15.040Z,95.62
2019-03-09T09:10:15.030Z,95.62
2019-03-09T09:11:14.997Z,101.25
2019-03-09T09:12:14.990Z,95.62
2019-03-09T09:13:14.985Z,106.88
2019-03-09T09:14:14.970Z,118.12
2019-03-09T09:15:15.231Z,118.12
2019-03-09T09:16:14.964Z,118.12
2019-03-09T09:17:14.932Z,123.75
2019-03-09T09:18:14.934Z,118.12
2019-03-09T09:19:14.908Z,118.12
2019-03-09T09:20:14.920Z,123.75
2019-03-09T09:21:14.913Z,129.38
2019-03-09T09:22:14.873Z,118.12
2019-03-09T09:23:14.867Z,118.12
2019-03-09T09:24:14.854Z,118.12
2019-03-09T09:25:14.867Z,112.50
2019-03-09T09:26:14.834Z,112.50
2019-03-09T09:27:14.823Z,112.50
2019-03-09T09:28:14.805Z,106.88
2019-03-09T09:29:14.795Z,101.25
2019-03-09T09:30:14.806Z,101.25
2019-03-09T09:31:14.771Z,106.88
2019-03-09T09:32:14.765Z,101.25
2019-03-09T09:33:14.748Z,101.25
2019-03-09T09:34:14.737Z,112.50
2019-03-09T09:35:14.745Z,123.75
2019-03-09T09:36:14.714Z,135.00
2019-03-09T09:37:14.702Z,135.00
2019-03-09T09:38:14.697Z,140.62
2019-03-09T09:39:14.686Z,129.38
2019-03-09T09:40:14.697Z,123.75
2019-03-09T09:41:14.706Z,118.12
2019-03-09T09:42:14.647Z,118.12
2019-03-09T09:43:14.635Z,118.12
2019-03-09T09:44:14.628Z,118.12
2019-03-09T09:45:14.635Z,118.12
2019-03-09T09:46:14.603Z,112.50
2019-03-09T09:47:14.597Z,112.50
2019-03-09T09:48:14.585Z,112.50
2019-03-09T09:49:14.576Z,118.12
2019-03-09T09:50:14.589Z,118.12
2019-03-09T09:51:14.592Z,123.75
2019-03-09T09:52:14.571Z,135.00
2019-03-09T09:53:14.523Z,140.62
2019-03-09T09:54:14.520Z,151.88
2019-03-09T09:55:14.531Z,168.75
2019-03-09T09:56:14.547Z,168.75
2019-03-09T09:57:14.485Z,140.62
2019-03-09T09:58:14.467Z,151.88
2019-03-09T09:59:14.660Z,135.00
2019-03-09T10:00:14.461Z,123.75
2019-03-09T10:01:14.431Z,135.00
2019-03-09T10:02:14.433Z,157.50
2019-03-09T10:03:14.408Z,163.12
2019-03-09T10:04:14.398Z,146.25
2019-03-09T10:05:14.407Z,151.88
2019-03-09T10:06:14.378Z,163.12
2019-03-09T10:07:14.366Z,151.88
2019-03-09T10:08:14.364Z,135.00
2019-03-09T10:09:14.341Z,129.38
2019-03-09T10:10:14.354Z,151.88
2019-03-09T10:11:14.317Z,180.00
2019-03-09T10:12:14.317Z,168.75
2019-03-09T10:13:14.299Z,174.38
2019-03-09T10:14:14.284Z,180.00
2019-03-09T10:15:14.292Z,202.50
2019-03-09T10:16:14.268Z,247.50
2019-03-09T10:17:14.250Z,247.50
2019-03-09T10:18:14.243Z,208.12
2019-03-09T10:19:14.228Z,196.88
2019-03-09T10:20:14.238Z,213.75
2019-03-09T10:21:14.207Z,202.50
2019-03-09T10:22:14.203Z,236.25
2019-03-09T10:23:14.185Z,236.25
2019-03-09T10:24:14.182Z,230.62
2019-03-09T10:25:14.187Z,270.00
2019-03-09T10:26:14.162Z,410.62
2019-03-09T10:27:14.141Z,405.00
2019-03-09T10:28:14.128Z,303.75
2019-03-09T10:29:14.153Z,427.50
2019-03-09T10:30:14.130Z,478.12
2019-03-09T10:31:14.103Z,466.88
2019-03-09T10:32:14.085Z,331.88
2019-03-09T10:33:14.075Z,264.38
2019-03-09T10:34:14.072Z,438.75
2019-03-09T10:35:14.076Z,438.75
2019-03-09T10:36:14.055Z,376.88
2019-03-09T10:37:14.030Z,343.12
2019-03-09T10:38:14.020Z,320.62
2019-03-09T10:39:14.008Z,253.12
2019-03-09T10:40:14.018Z,270.00
2019-03-09T10:41:13.990Z,219.38
2019-03-09T10:42:13.990Z,191.25
2019-03-09T10:43:13.970Z,174.38
2019-03-09T10:44:13.954Z,157.50
2019-03-09T10:45:14.016Z,174.38
2019-03-09T10:46:13.955Z,174.38
2019-03-09T10:47:13.925Z,157.50
2019-03-09T10:48:13.915Z,151.88
2019-03-09T10:49:13.901Z,146.25
2019-03-09T10:50:13.905Z,151.88
2019-03-09T10:51:13.899Z,151.88
2019-03-09T10:52:13.873Z,140.62
2019-03-09T10:53:13.856Z,140.62
2019-03-09T10:54:13.850Z,151.88
2019-03-09T10:55:13.845Z,151.88
2019-03-09T10:56:13.851Z,157.50
2019-03-09T10:57:13.820Z,151.88
2019-03-09T10:58:13.802Z,151.88
2019-03-09T10:59:13.797Z,151.88
2019-03-09T11:00:13.804Z,168.75
2019-03-09T11:01:13.791Z,185.62
2019-03-09T11:02:13.759Z,180.00
2019-03-09T11:03:13.748Z,157.50
2019-03-09T11:04:13.736Z,157.50
2019-03-09T11:05:13.727Z,163.12
2019-03-09T11:06:13.737Z,157.50
2019-03-09T11:07:13.719Z,163.12
2019-03-09T11:08:13.697Z,163.12
2019-03-09T11:09:13.681Z,163.12
2019-03-09T11:10:13.671Z,151.88
2019-03-09T11:11:13.687Z,146.25
2019-03-09T11:12:13.656Z,157.50
2019-03-09T11:13:13.641Z,174.38
2019-03-09T11:14:13.648Z,196.88
2019-03-09T11:15:13.697Z,180.00
2019-03-09T11:16:13.622Z,168.75
2019-03-09T11:17:13.606Z,202.50
2019-03-09T11:18:13.585Z,208.12
2019-03-09T11:19:13.577Z,241.88
2019-03-09T11:20:13.564Z,174.38
2019-03-09T11:21:13.573Z,180.00
2019-03-09T11:22:13.544Z,208.12
2019-03-09T11:23:13.542Z,180.00
2019-03-09T11:24:13.523Z,225.00
2019-03-09T11:25:13.505Z,230.62
2019-03-09T11:26:13.518Z,213.75
2019-03-09T11:27:13.485Z,213.75
2019-03-09T11:28:13.475Z,230.62
2019-03-09T11:29:13.474Z,253.12
2019-03-09T11:30:13.463Z,236.25
2019-03-09T11:31:13.461Z,286.88
2019-03-09T11:32:13.432Z,331.88
2019-03-09T11:33:13.419Z,253.12
2019-03-09T11:34:13.412Z,230.62
2019-03-09T11:35:13.397Z,225.00
2019-03-09T11:36:13.427Z,253.12
2019-03-09T11:37:13.375Z,315.00
2019-03-09T11:38:13.364Z,303.75
2019-03-09T11:39:13.354Z,466.88
2019-03-09T11:40:13.341Z,371.25
2019-03-09T11:41:19.107Z,444.38
2019-03-09T11:42:14.326Z,450.00
2019-03-09T11:43:13.316Z,258.75
2019-03-09T11:44:13.302Z,331.88
2019-03-09T11:45:13.299Z,461.25
2019-03-09T11:46:13.295Z,410.62
2019-03-09T11:47:13.268Z,450.00
2019-03-09T11:48:13.313Z,348.75
2019-03-09T11:49:13.244Z,433.12
2019-03-09T11:50:13.233Z,348.75
2019-03-09T11:51:13.247Z,286.88
2019-03-09T11:52:19.981Z,360.00
2019-03-09T11:53:14.201Z,343.12
2019-03-09T11:54:13.189Z,1001.25
2019-03-09T11:55:13.178Z,1068.75
2019-03-09T11:56:13.201Z,1203.75
2019-03-09T11:57:13.158Z,1113.75
2019-03-09T11:58:13.146Z,568.12
2019-03-09T11:59:13.138Z,956.25
2019-03-09T12:00:13.125Z,1738.12
2019-03-09T12:01:13.140Z,1569.38
2019-03-09T12:02:13.108Z,1760.62
2019-03-09T12:03:13.102Z,1485.00
2019-03-09T12:04:13.082Z,1350.00
2019-03-09T12:05:13.090Z,1766.25
2019-03-09T12:06:13.096Z,1980.00
2019-03-09T12:07:13.047Z,2008.12
2019-03-09T12:08:13.038Z,1749.38
2019-03-09T12:09:13.027Z,1890.00
2019-03-09T12:10:13.019Z,1878.75
2019-03-09T12:11:13.011Z,1906.88
2019-03-09T12:12:13.032Z,2126.25
2019-03-09T12:13:12.983Z,2103.75
2019-03-09T12:14:12.975Z,2126.25
2019-03-09T12:15:12.979Z,2227.50
2019-03-09T12:16:12.998Z,540.00
2019-03-09T12:17:13.086Z,2255.62
2019-03-09T12:18:12.932Z,2210.62
2019-03-09T12:19:12.926Z,2148.75
2019-03-09T12:20:12.910Z,2081.25
2019-03-09T12:21:12.897Z,2109.38
2019-03-09T12:22:12.916Z,2171.25
2019-03-09T12:23:12.880Z,2221.88
2019-03-09T12:24:17.435Z,1164.38
2019-03-09T12:25:13.855Z,1743.75
2019-03-09T12:26:12.845Z,1794.38
2019-03-09T12:27:12.861Z,1946.25
2019-03-09T12:28:12.824Z,1237.50
2019-03-09T12:29:12.815Z,1276.88
2019-03-09T12:30:12.831Z,720.00
2019-03-09T12:31:12.791Z,646.88
2019-03-09T12:32:12.799Z,247.50
2019-03-09T12:33:12.778Z,748.12
2019-03-09T12:34:12.771Z,264.38
2019-03-09T12:35:12.749Z,388.12
2019-03-09T12:36:12.739Z,196.88
2019-03-09T12:37:12.755Z,191.25
2019-03-09T12:38:12.715Z,264.38
2019-03-09T12:39:12.706Z,202.50
2019-03-09T12:40:12.699Z,146.25
2019-03-09T12:41:12.712Z,258.75
2019-03-09T12:42:12.694Z,180.00
2019-03-09T12:43:12.674Z,101.25
2019-03-09T12:44:12.652Z,78.75
2019-03-09T12:45:12.643Z,230.62
2019-03-09T12:46:12.640Z,163.12
2019-03-09T12:47:12.638Z,118.12
2019-03-09T12:48:12.614Z,90.00
2019-03-09T12:49:12.602Z,433.12
2019-03-09T12:50:12.588Z,562.50
2019-03-09T12:51:12.578Z,585.00
2019-03-09T12:52:12.603Z,545.62
2019-03-09T12:53:14.178Z,523.12
2019-03-09T12:54:12.548Z,483.75
2019-03-09T12:55:12.553Z,433.12
2019-03-09T12:56:12.523Z,180.00
2019-03-09T12:57:12.551Z,540.00
2019-03-09T12:58:12.521Z,241.88
2019-03-09T12:59:12.495Z,517.50
2019-03-09T13:00:12.500Z,511.88
2019-03-09T13:01:12.469Z,483.75
2019-03-09T13:02:12.548Z,185.62
2019-03-09T13:03:12.515Z,213.75
2019-03-09T13:04:12.442Z,196.88
2019-03-09T13:05:12.491Z,247.50
2019-03-09T13:06:12.432Z,208.12
2019-03-09T13:07:12.425Z,208.12
2019-03-09T13:08:12.395Z,168.75
2019-03-09T13:09:12.383Z,135.00
2019-03-09T13:10:12.394Z,112.50
2019-03-09T13:11:12.368Z,123.75
2019-03-09T13:12:12.370Z,129.38
2019-03-09T13:13:12.384Z,106.88
2019-03-09T13:14:12.336Z,118.12
2019-03-09T13:15:12.331Z,270.00
2019-03-09T13:16:12.345Z,185.62
2019-03-09T13:17:12.393Z,213.75
2019-03-09T13:18:12.362Z,168.75
2019-03-09T13:19:12.281Z,123.75
2019-03-09T13:20:12.265Z,90.00
2019-03-09T13:21:12.261Z,84.38
2019-03-09T13:22:12.264Z,95.62
2019-03-09T13:23:12.228Z,84.38
2019-03-09T13:24:12.227Z,106.88
2019-03-09T13:25:12.214Z,106.88
2019-03-09T13:26:12.217Z,61.88
2019-03-09T13:27:12.212Z,112.50
2019-03-09T13:28:12.183Z,196.88
2019-03-09T13:29:12.175Z,230.62
2019-03-09T13:30:12.160Z,185.62
2019-03-09T13:31:12.143Z,140.62
2019-03-09T13:32:12.152Z,95.62
2019-03-09T13:33:12.126Z,78.75
2019-03-09T13:34:12.115Z,61.88
2019-03-09T13:35:12.121Z,39.38
2019-03-09T13:36:12.098Z,28.12
2019-03-09T13:37:12.130Z,33.75
2019-03-09T13:38:12.073Z,39.38
2019-03-09T13:39:12.066Z,78.75
2019-03-09T13:40:12.074Z,129.38
2019-03-09T13:41:12.048Z,101.25
2019-03-09T13:42:12.041Z,174.38
2019-03-09T13:43:12.055Z,180.00
2019-03-09T13:44:12.003Z,180.00
2019-03-09T13:45:11.999Z,157.50
2019-03-09T13:46:11.980Z,129.38
2019-03-09T13:47:11.975Z,123.75
2019-03-09T13:48:11.987Z,146.25
2019-03-09T13:49:11.966Z,219.38
2019-03-09T13:50:11.936Z,174.38
2019-03-09T13:51:11.941Z,112.50
2019-03-09T13:52:11.926Z,101.25
2019-03-09T13:53:11.925Z,90.00
2019-03-09T13:54:11.897Z,90.00
2019-03-09T13:55:11.891Z,90.00
2019-03-09T13:56:11.877Z,106.88
2019-03-09T13:57:11.866Z,123.75
2019-03-09T13:58:11.892Z,135.00
2019-03-09T13:59:11.862Z,129.38
2019-03-09T14:00:11.842Z,118.12
2019-03-09T14:01:11.816Z,112.50
2019-03-09T14:02:11.816Z,140.62
2019-03-09T14:03:11.819Z,106.88
2019-03-09T14:04:11.785Z,123.75
2019-03-09T14:05:11.775Z,101.25
2019-03-09T14:06:11.771Z,78.75
2019-03-09T14:07:11.754Z,67.50
2019-03-09T14:08:11.788Z,61.88
2019-03-09T14:09:11.735Z,67.50
2019-03-09T14:10:11.727Z,56.25
2019-03-09T14:11:11.710Z,50.62
2019-03-09T14:12:11.697Z,56.25
2019-03-09T14:13:11.717Z,84.38
2019-03-09T14:14:12.044Z,78.75
2019-03-09T14:15:11.670Z,67.50
2019-03-09T14:16:11.652Z,39.38
2019-03-09T14:17:11.643Z,45.00
2019-03-09T14:18:11.655Z,39.38
2019-03-09T14:19:11.620Z,39.38
2019-03-09T14:20:11.605Z,56.25
2019-03-09T14:21:11.600Z,50.62
2019-03-09T14:22:11.592Z,33.75
2019-03-09T14:23:12.051Z,39.38
2019-03-09T14:24:11.579Z,61.88
2019-03-09T14:25:11.560Z,78.75
2019-03-09T14:26:11.541Z,78.75
2019-03-09T14:27:11.534Z,95.62
2019-03-09T14:28:11.544Z,112.50
2019-03-09T14:29:11.507Z,106.88
2019-03-09T14:30:11.508Z,90.00
2019-03-09T14:31:11.484Z,84.38
2019-03-09T14:32:11.473Z,84.38
2019-03-09T14:33:11.485Z,78.75
2019-03-09T14:34:11.448Z,78.75
2019-03-09T14:35:11.439Z,67.50
2019-03-09T14:36:11.425Z,67.50
2019-03-09T14:37:11.418Z,101.25
2019-03-09T14:38:11.430Z,123.75
2019-03-09T14:39:11.395Z,118.12
2019-03-09T14:40:11.382Z,101.25
2019-03-09T14:41:11.373Z,106.88
2019-03-09T14:42:11.356Z,135.00
2019-03-09T14:43:11.364Z,163.12
2019-03-09T14:44:11.337Z,123.75
2019-03-09T14:45:11.330Z,84.38
2019-03-09T14:46:11.317Z,61.88
2019-03-09T14:47:11.339Z,106.88
2019-03-09T14:48:11.322Z,78.75
2019-03-09T14:49:11.281Z,84.38
2019-03-09T14:50:11.271Z,95.62
2019-03-09T14:51:11.268Z,101.25
2019-03-09T14:52:11.248Z,95.62
2019-03-09T14:53:11.254Z,90.00
2019-03-09T14:54:11.235Z,90.00
2019-03-09T14:55:11.212Z,78.75
2019-03-09T14:56:11.222Z,106.88
2019-03-09T14:57:11.195Z,112.50
2019-03-09T14:58:11.198Z,90.00
2019-03-09T14:59:11.173Z,95.62
2019-03-09T15:00:11.154Z,84.38
2019-03-09T15:01:11.146Z,61.88
2019-03-09T15:02:11.130Z,61.88
2019-03-09T15:03:11.149Z,50.62
2019-03-09T15:04:11.117Z,50.62
2019-03-09T15:05:11.097Z,56.25
2019-03-09T15:06:11.086Z,50.62
2019-03-09T15:07:11.074Z,45.00
2019-03-09T15:08:11.087Z,39.38
2019-03-09T15:09:11.053Z,33.75
2019-03-09T15:10:11.053Z,45.00
2019-03-09T15:11:11.031Z,61.88
2019-03-09T15:12:11.021Z,67.50
2019-03-09T15:13:11.035Z,73.12
2019-03-09T15:14:11.001Z,45.00
2019-03-09T15:15:10.984Z,39.38
2019-03-09T15:16:10.971Z,33.75
2019-03-09T15:17:10.963Z,39.38
2019-03-09T15:18:10.973Z,45.00
2019-03-09T15:19:10.960Z,73.12
2019-03-09T15:20:10.931Z,56.25
2019-03-09T15:21:10.936Z,33.75
2019-03-09T15:22:10.906Z,22.50
2019-03-09T15:23:10.938Z,28.12
2019-03-09T15:24:10.896Z,33.75
2019-03-09T15:25:10.870Z,61.88
2019-03-09T15:26:10.874Z,112.50
2019-03-09T15:27:10.858Z,67.50
2019-03-09T15:28:10.861Z,67.50
2019-03-09T15:29:10.836Z,61.88
2019-03-09T15:30:10.819Z,73.12
2019-03-09T15:31:10.806Z,50.62
2019-03-09T15:32:10.793Z,50.62
2019-03-09T15:33:10.804Z,50.62
2019-03-09T15:34:10.774Z,45.00
2019-03-09T15:35:10.759Z,45.00
2019-03-09T15:36:10.750Z,45.00
2019-03-09T15:37:10.738Z,45.00
2019-03-09T15:38:10.749Z,45.00
2019-03-09T15:39:10.718Z,39.38
2019-03-09T15:40:10.704Z,45.00
2019-03-09T15:41:10.690Z,56.25
2019-03-09T15:42:10.682Z,56.25
2019-03-09T15:43:10.672Z,50.62
2019-03-09T15:44:10.683Z,50.62
2019-03-09T15:45:10.643Z,78.75
2019-03-09T15:46:10.641Z,118.12
2019-03-09T15:47:10.625Z,90.00
2019-03-09T15:48:10.626Z,61.88
2019-03-09T15:49:10.623Z,45.00
2019-03-09T15:50:10.591Z,45.00
2019-03-09T15:51:10.587Z,50.62
2019-03-09T15:52:10.593Z,61.88
2019-03-09T15:53:10.569Z,61.88
2019-03-09T15:54:10.562Z,67.50
2019-03-09T15:55:10.537Z,67.50
2019-03-09T15:56:10.520Z,67.50
2019-03-09T15:57:10.512Z,78.75
2019-03-09T15:58:10.503Z,90.00
2019-03-09T15:59:10.506Z,101.25
2019-03-09T16:00:10.475Z,78.75
2019-03-09T16:01:10.474Z,73.12
2019-03-09T16:02:10.454Z,56.25
2019-03-09T16:03:10.442Z,50.62
2019-03-09T16:04:10.456Z,45.00
2019-03-09T16:05:10.422Z,39.38
2019-03-09T16:06:10.443Z,33.75
2019-03-09T16:07:10.396Z,33.75
2019-03-09T16:08:10.503Z,33.75
2019-03-09T16:09:10.398Z,33.75
2019-03-09T16:10:10.365Z,39.38
2019-03-09T16:11:10.355Z,39.38
2019-03-09T16:12:10.353Z,45.00
2019-03-09T16:13:10.333Z,33.75
2019-03-09T16:14:10.338Z,22.50
2019-03-09T16:15:10.307Z,22.50
2019-03-09T16:16:10.297Z,22.50
2019-03-09T16:17:10.299Z,22.50
2019-03-09T16:18:10.273Z,22.50
2019-03-09T16:19:10.286Z,22.50
2019-03-09T16:20:10.257Z,16.88
2019-03-09T16:21:10.242Z,22.50
2019-03-09T16:22:10.241Z,22.50
2019-03-09T16:23:10.216Z,16.88
2019-03-09T16:24:10.234Z,16.88
2019-03-09T16:25:10.198Z,16.88
2019-03-09T16:26:10.181Z,22.50
2019-03-09T16:27:10.177Z,16.88
2019-03-09T16:28:10.160Z,22.50
2019-03-09T16:29:10.168Z,22.50
2019-03-09T16:30:10.138Z,22.50
2019-03-09T16:31:10.125Z,33.75
2019-03-09T16:32:10.120Z,28.12
2019-03-09T16:33:10.102Z,22.50
2019-03-09T16:34:10.118Z,28.12
2019-03-09T16:35:10.083Z,39.38
2019-03-09T16:36:10.068Z,45.00
2019-03-09T16:37:10.061Z,39.38
2019-03-09T16:38:10.049Z,45.00
2019-03-09T16:39:10.083Z,45.00
2019-03-09T16:40:10.029Z,50.62
2019-03-09T16:41:10.011Z,50.62
2019-03-09T16:42:10.009Z,45.00
2019-03-09T16:43:10.000Z,33.75
2019-03-09T16:44:10.011Z,33.75
2019-03-09T16:45:09.967Z,33.75
2019-03-09T16:46:09.955Z,28.12
2019-03-09T16:47:09.952Z,28.12
2019-03-09T16:48:09.932Z,28.12
2019-03-09T16:49:09.945Z,22.50
2019-03-09T16:50:09.909Z,16.88
2019-03-09T16:51:09.899Z,16.88
2019-03-09T16:52:09.917Z,16.88
2019-03-09T16:53:09.879Z,16.88
2019-03-09T16:54:09.884Z,16.88
2019-03-09T16:55:09.852Z,16.88
2019-03-09T16:56:09.844Z,11.25
2019-03-09T16:57:09.830Z,11.25
2019-03-09T16:58:09.831Z,11.25
2019-03-09T16:59:09.825Z,11.25
2019-03-09T17:00:09.797Z,11.25
2019-03-09T17:01:09.785Z,11.25
2019-03-09T17:02:09.773Z,11.25
2019-03-09T17:03:09.767Z,11.25
2019-03-09T17:04:09.776Z,5.62
2019-03-09T17:05:09.741Z,5.62
2019-03-09T17:06:09.730Z,5.62
2019-03-09T17:07:09.715Z,5.62
2019-03-09T17:08:09.706Z,5.62
2019-03-09T17:09:09.714Z,5.62
2019-03-09T17:10:09.689Z,5.62
2019-03-09T17:11:09.672Z,5.62
2019-03-09T17:12:09.668Z,5.62
2019-03-09T17:13:09.648Z,5.62
2019-03-09T17:14:09.659Z,5.62
2019-03-09T17:15:09.627Z,5.62
2019-03-09T17:16:09.627Z,5.62
2019-03-09T17:17:09.610Z,0.00
2019-03-09T17:18:09.595Z,0.00
2019-03-09T17:19:09.607Z,0.00
2019-03-09T17:20:09.583Z,0.00
2019-03-09T17:21:09.580Z,0.00
2019-03-09T17:22:09.555Z,0.00
2019-03-09T17:23:10.345Z,0.00
2019-03-09T17:24:09.575Z,0.00
2019-03-09T17:25:09.528Z,0.00
2019-03-09T17:26:09.506Z,0.00
2019-03-09T17:27:09.495Z,0.00
2019-03-09T17:28:09.485Z,0.00
2019-03-09T17:29:09.494Z,0.00
2019-03-09T17:30:09.460Z,0.00
2019-03-09T17:31:09.475Z,0.00
2019-03-09T17:32:09.439Z,0.00
2019-03-09T17:33:09.427Z,0.00
2019-03-09T17:34:09.436Z,0.00
2019-03-09T17:35:09.410Z,0.00
2019-03-09T17:36:09.398Z,0.00
2019-03-09T17:37:09.405Z,0.00
2019-03-09T17:38:09.370Z,0.00
2019-03-09T17:39:09.388Z,0.00
2019-03-09T17:40:09.349Z,0.00
2019-03-09T17:41:09.351Z,0.00
2019-03-09T17:42:09.329Z,0.00
2019-03-09T17:43:09.314Z,0.00
2019-03-09T17:44:09.336Z,0.00
2019-03-09T17:45:09.296Z,0.00
2019-03-09T17:46:09.287Z,0.00
2019-03-09T17:47:09.272Z,0.00
2019-03-09T17:48:09.271Z,0.00
2019-03-09T17:49:09.281Z,0.00
2019-03-09T17:50:09.241Z,0.00
2019-03-09T17:51:09.226Z,0.00
2019-03-09T17:52:09.217Z,0.00
2019-03-09T17:53:09.239Z,0.00
2019-03-09T17:54:09.218Z,0.00
2019-03-09T17:55:09.189Z,0.00
2019-03-09T17:56:09.168Z,0.00
2019-03-09T17:57:09.167Z,0.00
2019-03-09T17:58:09.154Z,0.00
2019-03-09T17:59:09.172Z,0.00
2019-03-09T18:00:11.394Z,0.00
2019-03-09T18:01:09.112Z,0.00
2019-03-09T18:02:09.111Z,0.00
2019-03-09T18:03:09.096Z,0.00
2019-03-09T18:04:09.107Z,0.00
2019-03-09T18:05:09.076Z,0.00
2019-03-09T18:06:09.059Z,0.00
2019-03-09T18:07:09.043Z,0.00
2019-03-09T18:08:09.036Z,0.00
2019-03-09T18:09:09.026Z,0.00
2019-03-09T18:10:09.039Z,0.00
2019-03-09T18:11:08.999Z,0.00
2019-03-09T18:12:08.990Z,0.00
2019-03-09T18:13:09.016Z,0.00
2019-03-09T18:14:08.965Z,0.00
2019-03-09T18:15:09.003Z,0.00
2019-03-09T18:16:08.949Z,0.00
2019-03-09T18:17:08.936Z,0.00
2019-03-09T18:18:08.926Z,0.00
2019-03-09T18:19:08.910Z,0.00
2019-03-09T18:20:08.925Z,0.00
2019-03-09T18:21:08.888Z,0.00
2019-03-09T18:22:08.885Z,0.00
2019-03-09T18:23:08.866Z,0.00
2019-03-09T18:24:08.864Z,0.00
2019-03-09T18:25:08.866Z,0.00
2019-03-09T18:26:08.833Z,0.00
2019-03-09T18:27:08.825Z,0.00
2019-03-09T18:28:08.808Z,0.00
2019-03-09T18:29:08.803Z,0.00
2019-03-09T18:30:08.833Z,0.00
2019-03-09T18:31:08.778Z,0.00
2019-03-09T18:32:08.764Z,0.00
2019-03-09T18:33:08.751Z,0.00
2019-03-09T18:34:08.758Z,0.00
2019-03-09T18:35:08.771Z,0.00
2019-03-09T18:36:08.725Z,0.00
2019-03-09T18:37:08.710Z,0.00
2019-03-09T18:38:08.701Z,0.00
2019-03-09T18:39:08.701Z,0.00
2019-03-09T18:40:08.716Z,0.00
2019-03-09T18:41:08.669Z,0.00
2019-03-09T18:42:08.744Z,0.00
2019-03-09T18:43:08.646Z,0.00
2019-03-09T18:44:08.629Z,0.00
2019-03-09T18:45:08.725Z,0.00
2019-03-09T18:46:08.613Z,0.00
2019-03-09T18:47:08.884Z,0.00
2019-03-09T18:48:08.586Z,0.00
2019-03-09T18:49:08.575Z,0.00
2019-03-09T18:50:08.593Z,0.00
2019-03-09T18:51:08.559Z,0.00
2019-03-09T18:52:08.640Z,0.00
2019-03-09T18:53:08.531Z,0.00
2019-03-09T18:54:08.518Z,0.00
2019-03-09T18:55:08.532Z,0.00
2019-03-09T18:56:08.507Z,0.00
2019-03-09T18:57:08.491Z,0.00
2019-03-09T18:58:08.477Z,0.00
2019-03-09T18:59:08.468Z,0.00
2019-03-09T19:00:08.480Z,0.00